sensor_id;sensor_type;location;lat;lon;timestamp;pressure;altitude;pressure_sealevel;temperature;humidity
41862;BME280;27537;57.134;-2.136;2022-07-01T00:01:41;100577.09;;;16.03;100.00
41862;BME280;27537;57.134;-2.136;2022-07-01T00:04:08;100533.97;;;15.74;100.00
41862;BME280;27537;57.134;-2.136;2022-07-01T00:06:36;100562.50;;;16.25;100.00
41862;BME280;27537;57.134;-2.136;2022-07-01T00:09:03;100560.59;;;16.27;100.00
41862;BME280;27537;57.134;-2.136;2022-07-01T00:11:31;100561.16;;;16.32;100.00
41862;BME280;27537;57.134;-2.136;2022-07-01T00:13:58;100571.72;;;16.32;100.00
41862;BME280;27537;57.134;-2.136;2022-07-01T00:16:25;100522.56;;;16.02;100.00
41862;BME280;27537;57.134;-2.136;2022-07-01T00:18:52;100536.38;;;15.79;100.00
41862;BME280;27537;57.134;-2.136;2022-07-01T00:21:19;100561.34;;;16.02;100.00
41862;BME280;27537;57.134;-2.136;2022-07-01T00:23:45;100529.66;;;15.87;100.00
41862;BME280;27537;57.134;-2.136;2022-07-01T00:26:12;100538.44;;;15.88;100.00
41862;BME280;27537;57.134;-2.136;2022-07-01T00:28:39;100542.00;;;16.01;100.00
41862;BME280;27537;57.134;-2.136;2022-07-01T00:31:06;100550.13;;;16.25;100.00
41862;BME280;27537;57.134;-2.136;2022-07-01T00:33:33;100561.00;;;16.21;100.00
41862;BME280;27537;57.134;-2.136;2022-07-01T00:35:59;100538.41;;;16.02;100.00
41862;BME280;27537;57.134;-2.136;2022-07-01T00:38:26;100535.56;;;16.05;100.00
41862;BME280;27537;57.134;-2.136;2022-07-01T00:40:54;100566.41;;;16.19;100.00
41862;BME280;27537;57.134;-2.136;2022-07-01T00:43:22;100566.41;;;16.19;100.00
41862;BME280;27537;57.134;-2.136;2022-07-01T00:46:12;100571.97;;;16.14;100.00
41862;BME280;27537;57.134;-2.136;2022-07-01T00:48:40;100569.81;;;16.07;100.00
41862;BME280;27537;57.134;-2.136;2022-07-01T00:51:07;100578.13;;;16.01;100.00
41862;BME280;27537;57.134;-2.136;2022-07-01T00:53:35;100555.31;;;16.00;100.00
41862;BME280;27537;57.134;-2.136;2022-07-01T00:56:02;100570.66;;;16.07;100.00
41862;BME280;27537;57.134;-2.136;2022-07-01T00:58:29;100551.28;;;15.80;100.00
41862;BME280;27537;57.134;-2.136;2022-07-01T01:00:57;100557.69;;;15.75;100.00
41862;BME280;27537;57.134;-2.136;2022-07-01T01:03:26;100568.50;;;15.71;100.00
41862;BME280;27537;57.134;-2.136;2022-07-01T01:05:54;100578.25;;;15.85;100.00
41862;BME280;27537;57.134;-2.136;2022-07-01T01:08:24;100587.34;;;15.93;100.00
41862;BME280;27537;57.134;-2.136;2022-07-01T01:10:53;100562.50;;;15.83;100.00
41862;BME280;27537;57.134;-2.136;2022-07-01T01:13:20;100574.81;;;15.83;100.00
41862;BME280;27537;57.134;-2.136;2022-07-01T01:15:47;100552.47;;;15.60;100.00
41862;BME280;27537;57.134;-2.136;2022-07-01T01:18:14;100559.38;;;15.77;100.00
41862;BME280;27537;57.134;-2.136;2022-07-01T01:20:41;100572.00;;;15.86;100.00
41862;BME280;27537;57.134;-2.136;2022-07-01T01:23:08;100579.09;;;15.85;100.00
41862;BME280;27537;57.134;-2.136;2022-07-01T01:25:35;100570.94;;;15.60;100.00
41862;BME280;27537;57.134;-2.136;2022-07-01T01:28:02;100569.44;;;15.41;100.00
41862;BME280;27537;57.134;-2.136;2022-07-01T01:30:29;100580.91;;;15.40;100.00
41862;BME280;27537;57.134;-2.136;2022-07-01T01:32:56;100583.38;;;15.72;100.00
41862;BME280;27537;57.134;-2.136;2022-07-01T01:35:23;100580.09;;;15.68;100.00
41862;BME280;27537;57.134;-2.136;2022-07-01T01:37:50;100532.13;;;15.62;100.00
41862;BME280;27537;57.134;-2.136;2022-07-01T01:40:18;100591.72;;;15.80;100.00
41862;BME280;27537;57.134;-2.136;2022-07-01T01:42:45;100557.56;;;15.48;100.00
41862;BME280;27537;57.134;-2.136;2022-07-01T01:45:13;100537.03;;;15.39;100.00
41862;BME280;27537;57.134;-2.136;2022-07-01T01:47:40;100569.53;;;15.68;100.00
41862;BME280;27537;57.134;-2.136;2022-07-01T01:50:08;100569.63;;;15.67;100.00
41862;BME280;27537;57.134;-2.136;2022-07-01T01:52:36;100540.50;;;15.40;100.00
41862;BME280;27537;57.134;-2.136;2022-07-01T01:55:05;100539.34;;;15.29;100.00
41862;BME280;27537;57.134;-2.136;2022-07-01T01:57:32;100564.72;;;15.46;100.00
41862;BME280;27537;57.134;-2.136;2022-07-01T01:59:59;100538.91;;;15.37;100.00
41862;BME280;27537;57.134;-2.136;2022-07-01T02:02:26;100534.94;;;15.59;100.00
41862;BME280;27537;57.134;-2.136;2022-07-01T02:04:53;100511.31;;;15.28;100.00
41862;BME280;27537;57.134;-2.136;2022-07-01T02:07:20;100563.81;;;15.62;100.00
41862;BME280;27537;57.134;-2.136;2022-07-01T02:09:46;100492.16;;;15.53;100.00
41862;BME280;27537;57.134;-2.136;2022-07-01T02:12:13;100542.41;;;15.81;100.00
41862;BME280;27537;57.134;-2.136;2022-07-01T02:14:40;100536.19;;;15.82;100.00
41862;BME280;27537;57.134;-2.136;2022-07-01T02:17:08;100514.97;;;15.69;100.00
41862;BME280;27537;57.134;-2.136;2022-07-01T02:19:34;100502.63;;;15.55;100.00
41862;BME280;27537;57.134;-2.136;2022-07-01T02:22:01;100535.72;;;15.75;100.00
41862;BME280;27537;57.134;-2.136;2022-07-01T02:24:28;100490.00;;;15.60;100.00
41862;BME280;27537;57.134;-2.136;2022-07-01T02:26:55;100523.72;;;15.69;100.00
41862;BME280;27537;57.134;-2.136;2022-07-01T02:29:22;100522.03;;;15.54;100.00
41862;BME280;27537;57.134;-2.136;2022-07-01T02:31:48;100541.81;;;15.47;100.00
41862;BME280;27537;57.134;-2.136;2022-07-01T02:34:15;100554.84;;;15.64;100.00
41862;BME280;27537;57.134;-2.136;2022-07-01T02:36:42;100549.91;;;15.58;100.00
41862;BME280;27537;57.134;-2.136;2022-07-01T02:39:09;100527.31;;;15.25;100.00
41862;BME280;27537;57.134;-2.136;2022-07-01T02:41:36;100515.78;;;15.26;100.00
41862;BME280;27537;57.134;-2.136;2022-07-01T02:44:22;100565.66;;;15.60;100.00
41862;BME280;27537;57.134;-2.136;2022-07-01T02:46:49;100571.59;;;15.63;100.00
41862;BME280;27537;57.134;-2.136;2022-07-01T02:49:16;100527.88;;;15.59;100.00
41862;BME280;27537;57.134;-2.136;2022-07-01T02:51:43;100534.78;;;15.76;100.00
41862;BME280;27537;57.134;-2.136;2022-07-01T02:54:09;100535.34;;;15.81;100.00
41862;BME280;27537;57.134;-2.136;2022-07-01T02:56:36;100554.81;;;16.07;100.00
41862;BME280;27537;57.134;-2.136;2022-07-01T02:59:03;100535.03;;;15.86;100.00
41862;BME280;27537;57.134;-2.136;2022-07-01T03:01:30;100536.72;;;16.01;100.00
41862;BME280;27537;57.134;-2.136;2022-07-01T03:03:57;100513.75;;;15.89;100.00
41862;BME280;27537;57.134;-2.136;2022-07-01T03:06:23;100537.97;;;15.96;100.00
41862;BME280;27537;57.134;-2.136;2022-07-01T03:08:50;100536.84;;;15.85;100.00
41862;BME280;27537;57.134;-2.136;2022-07-01T03:11:17;100546.75;;;15.82;100.00
41862;BME280;27537;57.134;-2.136;2022-07-01T03:13:44;100536.84;;;15.85;100.00
41862;BME280;27537;57.134;-2.136;2022-07-01T03:16:11;100557.47;;;15.93;100.00
41862;BME280;27537;57.134;-2.136;2022-07-01T03:18:38;100493.19;;;15.65;100.00
41862;BME280;27537;57.134;-2.136;2022-07-01T03:21:04;100546.31;;;16.02;100.00
41862;BME280;27537;57.134;-2.136;2022-07-01T03:23:31;100521.47;;;15.92;100.00
41862;BME280;27537;57.134;-2.136;2022-07-01T03:25:58;100502.13;;;15.91;100.00
41862;BME280;27537;57.134;-2.136;2022-07-01T03:28:25;100512.13;;;15.86;100.00
41862;BME280;27537;57.134;-2.136;2022-07-01T03:30:52;100546.69;;;16.10;100.00
41862;BME280;27537;57.134;-2.136;2022-07-01T03:33:18;100551.78;;;16.13;100.00
41862;BME280;27537;57.134;-2.136;2022-07-01T03:35:46;100504.94;;;15.74;100.00
41862;BME280;27537;57.134;-2.136;2022-07-01T03:38:13;100539.66;;;15.97;100.00
41862;BME280;27537;57.134;-2.136;2022-07-01T03:40:39;100494.88;;;15.66;100.00
41862;BME280;27537;57.134;-2.136;2022-07-01T03:43:06;100512.03;;;15.73;100.00
41862;BME280;27537;57.134;-2.136;2022-07-01T03:45:33;100535.22;;;15.83;100.00
41862;BME280;27537;57.134;-2.136;2022-07-01T03:48:00;100529.94;;;15.97;100.00
41862;BME280;27537;57.134;-2.136;2022-07-01T03:50:27;100545.38;;;16.03;100.00
41862;BME280;27537;57.134;-2.136;2022-07-01T03:52:54;100524.00;;;15.79;100.00
41862;BME280;27537;57.134;-2.136;2022-07-01T03:55:40;100556.22;;;15.99;100.00
41862;BME280;27537;57.134;-2.136;2022-07-01T03:58:06;100522.25;;;15.80;100.00
41862;BME280;27537;57.134;-2.136;2022-07-01T04:00:35;100526.38;;;15.84;100.00
41862;BME280;27537;57.134;-2.136;2022-07-01T04:03:03;100511.28;;;15.86;100.00
41862;BME280;27537;57.134;-2.136;2022-07-01T04:05:33;100554.44;;;16.13;100.00
41862;BME280;27537;57.134;-2.136;2022-07-01T04:08:05;100549.19;;;15.99;100.00
41862;BME280;27537;57.134;-2.136;2022-07-01T04:10:33;100571.72;;;16.05;100.00
41862;BME280;27537;57.134;-2.136;2022-07-01T04:13:01;100558.31;;;16.08;100.00
41862;BME280;27537;57.134;-2.136;2022-07-01T04:15:48;100525.31;;;16.01;100.00
41862;BME280;27537;57.134;-2.136;2022-07-01T04:18:15;100536.22;;;16.09;100.00
41862;BME280;27537;57.134;-2.136;2022-07-01T04:20:42;100553.97;;;16.07;100.00
41862;BME280;27537;57.134;-2.136;2022-07-01T04:23:09;100561.97;;;16.05;100.00
41862;BME280;27537;57.134;-2.136;2022-07-01T04:25:35;100542.97;;;15.86;100.00
41862;BME280;27537;57.134;-2.136;2022-07-01T04:28:02;100560.03;;;15.94;100.00
41862;BME280;27537;57.134;-2.136;2022-07-01T04:30:30;100559.09;;;15.81;100.00
41862;BME280;27537;57.134;-2.136;2022-07-01T04:32:57;100567.28;;;15.91;100.00
41862;BME280;27537;57.134;-2.136;2022-07-01T04:35:23;100546.09;;;15.78;100.00
41862;BME280;27537;57.134;-2.136;2022-07-01T04:37:51;100576.91;;;16.06;100.00
41862;BME280;27537;57.134;-2.136;2022-07-01T04:40:17;100544.84;;;15.69;100.00
41862;BME280;27537;57.134;-2.136;2022-07-01T04:42:44;100565.88;;;15.71;100.00
41862;BME280;27537;57.134;-2.136;2022-07-01T04:45:11;100574.28;;;15.78;100.00
41862;BME280;27537;57.134;-2.136;2022-07-01T04:47:38;100579.56;;;15.78;100.00
41862;BME280;27537;57.134;-2.136;2022-07-01T04:50:05;100583.13;;;15.91;100.00
41862;BME280;27537;57.134;-2.136;2022-07-01T04:52:32;100559.47;;;15.75;100.00
41862;BME280;27537;57.134;-2.136;2022-07-01T04:54:59;100585.78;;;15.77;100.00
41862;BME280;27537;57.134;-2.136;2022-07-01T04:57:26;100535.44;;;15.65;100.00
41862;BME280;27537;57.134;-2.136;2022-07-01T04:59:52;100544.84;;;15.55;100.00
41862;BME280;27537;57.134;-2.136;2022-07-01T05:02:19;100590.72;;;15.67;100.00
41862;BME280;27537;57.134;-2.136;2022-07-01T05:04:46;100611.34;;;15.76;100.00
41862;BME280;27537;57.134;-2.136;2022-07-01T05:07:13;100580.66;;;15.45;100.00
41862;BME280;27537;57.134;-2.136;2022-07-01T05:09:55;100610.69;;;15.87;100.00
41862;BME280;27537;57.134;-2.136;2022-07-01T05:12:22;100570.94;;;15.60;100.00
41862;BME280;27537;57.134;-2.136;2022-07-01T05:14:49;100550.34;;;15.07;100.00
41862;BME280;27537;57.134;-2.136;2022-07-01T05:17:16;100610.59;;;15.44;100.00
41862;BME280;27537;57.134;-2.136;2022-07-01T05:19:43;100570.13;;;15.00;100.00
41862;BME280;27537;57.134;-2.136;2022-07-01T05:22:28;100584.88;;;15.03;100.00
41862;BME280;27537;57.134;-2.136;2022-07-01T05:24:55;100602.38;;;14.89;100.00
41862;BME280;27537;57.134;-2.136;2022-07-01T05:27:22;100582.38;;;14.85;100.00
41862;BME280;27537;57.134;-2.136;2022-07-01T05:29:51;100554.81;;;14.91;100.00
41862;BME280;27537;57.134;-2.136;2022-07-01T05:32:19;100534.50;;;14.93;100.00
41862;BME280;27537;57.134;-2.136;2022-07-01T05:34:45;100576.91;;;15.04;100.00
41862;BME280;27537;57.134;-2.136;2022-07-01T05:37:12;100561.72;;;14.93;100.00
41862;BME280;27537;57.134;-2.136;2022-07-01T05:39:39;100580.06;;;14.95;100.00
41862;BME280;27537;57.134;-2.136;2022-07-01T05:42:14;100544.72;;;14.83;100.00
41862;BME280;27537;57.134;-2.136;2022-07-01T05:44:41;100604.19;;;15.33;100.00
41862;BME280;27537;57.134;-2.136;2022-07-01T05:47:08;100590.16;;;15.03;100.00
41862;BME280;27537;57.134;-2.136;2022-07-01T05:49:36;100552.00;;;14.94;100.00
41862;BME280;27537;57.134;-2.136;2022-07-01T05:52:03;100573.22;;;15.07;100.00
41862;BME280;27537;57.134;-2.136;2022-07-01T05:54:29;100583.56;;;14.95;100.00
41862;BME280;27537;57.134;-2.136;2022-07-01T05:56:56;100588.81;;;14.95;100.00
41862;BME280;27537;57.134;-2.136;2022-07-01T05:59:23;100607.63;;;15.05;100.00
41862;BME280;27537;57.134;-2.136;2022-07-01T06:01:50;100554.88;;;15.05;100.00
41862;BME280;27537;57.134;-2.136;2022-07-01T06:04:17;100545.13;;;14.91;100.00
41862;BME280;27537;57.134;-2.136;2022-07-01T06:06:44;100596.41;;;15.02;100.00
41862;BME280;27537;57.134;-2.136;2022-07-01T06:09:11;100623.19;;;15.24;100.00
41862;BME280;27537;57.134;-2.136;2022-07-01T06:11:38;100610.53;;;15.15;100.00
41862;BME280;27537;57.134;-2.136;2022-07-01T06:14:04;100599.69;;;15.05;100.00
41862;BME280;27537;57.134;-2.136;2022-07-01T06:16:31;100605.94;;;15.18;100.00
41862;BME280;27537;57.134;-2.136;2022-07-01T06:18:59;100633.50;;;15.43;100.00
41862;BME280;27537;57.134;-2.136;2022-07-01T06:21:26;100622.47;;;15.06;100.00
41862;BME280;27537;57.134;-2.136;2022-07-01T06:23:53;100608.31;;;15.23;100.00
41862;BME280;27537;57.134;-2.136;2022-07-01T06:26:19;100586.94;;;15.42;100.00
41862;BME280;27537;57.134;-2.136;2022-07-01T06:28:46;100581.25;;;15.05;100.00
41862;BME280;27537;57.134;-2.136;2022-07-01T06:31:13;100611.16;;;15.34;100.00
41862;BME280;27537;57.134;-2.136;2022-07-01T06:33:40;100590.19;;;15.17;100.00
41862;BME280;27537;57.134;-2.136;2022-07-01T06:36:07;100556.28;;;15.11;100.00
41862;BME280;27537;57.134;-2.136;2022-07-01T06:38:33;100586.47;;;15.21;100.00
41862;BME280;27537;57.134;-2.136;2022-07-01T06:41:00;100580.34;;;15.35;100.00
41862;BME280;27537;57.134;-2.136;2022-07-01T06:43:46;100561.03;;;15.34;100.00
41862;BME280;27537;57.134;-2.136;2022-07-01T06:46:12;100545.00;;;15.09;100.00
41862;BME280;27537;57.134;-2.136;2022-07-01T06:48:39;100601.84;;;15.72;100.00
41862;BME280;27537;57.134;-2.136;2022-07-01T06:51:06;100597.81;;;15.66;100.00
41862;BME280;27537;57.134;-2.136;2022-07-01T06:53:33;100545.28;;;15.18;100.00
41862;BME280;27537;57.134;-2.136;2022-07-01T06:56:00;100559.78;;;15.26;100.00
41862;BME280;27537;57.134;-2.136;2022-07-01T06:58:27;100545.41;;;15.46;100.00
41862;BME280;27537;57.134;-2.136;2022-07-01T07:00:54;100566.53;;;15.60;100.00
41862;BME280;27537;57.134;-2.136;2022-07-01T07:03:21;100565.09;;;15.54;100.00
41862;BME280;27537;57.134;-2.136;2022-07-01T07:05:48;100561.31;;;15.30;100.00
41862;BME280;27537;57.134;-2.136;2022-07-01T07:08:14;100530.00;;;15.09;100.00
41862;BME280;27537;57.134;-2.136;2022-07-01T07:10:41;100522.50;;;15.46;100.00
41862;BME280;27537;57.134;-2.136;2022-07-01T07:13:08;100546.00;;;16.21;100.00
41862;BME280;27537;57.134;-2.136;2022-07-01T07:15:35;100541.78;;;16.19;100.00
41862;BME280;27537;57.134;-2.136;2022-07-01T07:18:01;100549.66;;;16.60;100.00
41862;BME280;27537;57.134;-2.136;2022-07-01T07:20:28;100560.03;;;16.63;100.00
41862;BME280;27537;57.134;-2.136;2022-07-01T07:22:56;100548.44;;;16.51;100.00
41862;BME280;27537;57.134;-2.136;2022-07-01T07:25:23;100543.38;;;16.48;100.00
41862;BME280;27537;57.134;-2.136;2022-07-01T07:27:50;100565.91;;;16.54;100.00
41862;BME280;27537;57.134;-2.136;2022-07-01T07:30:17;100561.19;;;16.59;100.00
41862;BME280;27537;57.134;-2.136;2022-07-01T07:32:44;100593.91;;;16.98;100.00
41862;BME280;27537;57.134;-2.136;2022-07-01T07:35:12;100607.94;;;16.86;100.00
41862;BME280;27537;57.134;-2.136;2022-07-01T07:37:39;100603.84;;;17.07;100.00
41862;BME280;27537;57.134;-2.136;2022-07-01T07:40:08;100550.41;;;17.15;100.00
41862;BME280;27537;57.134;-2.136;2022-07-01T07:42:39;100580.78;;;17.10;100.00
41862;BME280;27537;57.134;-2.136;2022-07-01T07:45:07;100541.25;;;16.81;100.00
41862;BME280;27537;57.134;-2.136;2022-07-01T07:47:34;100551.91;;;16.66;100.00
41862;BME280;27537;57.134;-2.136;2022-07-01T07:50:02;100602.63;;;17.52;100.00
41862;BME280;27537;57.134;-2.136;2022-07-01T07:52:29;100555.31;;;18.23;100.00
41862;BME280;27537;57.134;-2.136;2022-07-01T07:54:56;100581.63;;;18.37;100.00
41862;BME280;27537;57.134;-2.136;2022-07-01T07:57:23;100581.81;;;18.47;100.00
41862;BME280;27537;57.134;-2.136;2022-07-01T07:59:50;100564.34;;;18.07;100.00
41862;BME280;27537;57.134;-2.136;2022-07-01T08:02:16;100580.81;;;17.99;100.00
41862;BME280;27537;57.134;-2.136;2022-07-01T08:04:49;100604.00;;;17.96;100.00
41862;BME280;27537;57.134;-2.136;2022-07-01T08:07:16;100610.38;;;17.68;100.00
41862;BME280;27537;57.134;-2.136;2022-07-01T08:09:43;100547.16;;;17.37;100.00
41862;BME280;27537;57.134;-2.136;2022-07-01T08:12:15;100563.16;;;17.36;100.00
41862;BME280;27537;57.134;-2.136;2022-07-01T08:14:43;100568.34;;;17.37;100.00
41862;BME280;27537;57.134;-2.136;2022-07-01T08:17:10;100577.81;;;16.74;100.00
41862;BME280;27537;57.134;-2.136;2022-07-01T08:19:37;100561.91;;;16.88;100.00
41862;BME280;27537;57.134;-2.136;2022-07-01T08:22:04;100574.44;;;17.12;100.00
41862;BME280;27537;57.134;-2.136;2022-07-01T08:24:31;100588.53;;;17.25;100.00
41862;BME280;27537;57.134;-2.136;2022-07-01T08:26:58;100567.69;;;17.34;100.00
41862;BME280;27537;57.134;-2.136;2022-07-01T08:29:25;100575.78;;;16.92;100.00
41862;BME280;27537;57.134;-2.136;2022-07-01T08:31:52;100555.59;;;17.17;100.00
41862;BME280;27537;57.134;-2.136;2022-07-01T08:34:20;100570.38;;;16.94;100.00
41862;BME280;27537;57.134;-2.136;2022-07-01T08:36:46;100549.91;;;16.83;100.00
41862;BME280;27537;57.134;-2.136;2022-07-01T08:39:13;100572.28;;;16.92;100.00
41862;BME280;27537;57.134;-2.136;2022-07-01T08:41:41;100533.03;;;16.85;100.00
41862;BME280;27537;57.134;-2.136;2022-07-01T08:44:08;100527.94;;;16.82;100.00
41862;BME280;27537;57.134;-2.136;2022-07-01T08:46:35;100538.75;;;16.92;100.00
41862;BME280;27537;57.134;-2.136;2022-07-01T08:49:02;100545.16;;;16.75;100.00
41862;BME280;27537;57.134;-2.136;2022-07-01T08:51:29;100573.69;;;16.97;100.00
41862;BME280;27537;57.134;-2.136;2022-07-01T08:53:56;100576.31;;;16.84;100.00
41862;BME280;27537;57.134;-2.136;2022-07-01T08:56:23;100596.25;;;17.16;100.00
41862;BME280;27537;57.134;-2.136;2022-07-01T08:59:09;100536.81;;;16.81;100.00
41862;BME280;27537;57.134;-2.136;2022-07-01T09:01:37;100565.63;;;16.86;100.00
41862;BME280;27537;57.134;-2.136;2022-07-01T09:04:18;100585.72;;;17.01;100.00
41862;BME280;27537;57.134;-2.136;2022-07-01T09:06:46;100546.16;;;16.87;100.00
41862;BME280;27537;57.134;-2.136;2022-07-01T09:11:53;100571.16;;;16.81;100.00
41862;BME280;27537;57.134;-2.136;2022-07-01T09:14:23;100563.97;;;17.11;100.00
41862;BME280;27537;57.134;-2.136;2022-07-01T09:16:52;100510.84;;;17.14;100.00
41862;BME280;27537;57.134;-2.136;2022-07-01T09:19:21;100518.69;;;17.02;100.00
41862;BME280;27537;57.134;-2.136;2022-07-01T09:21:54;100564.94;;;17.35;100.00
41862;BME280;27537;57.134;-2.136;2022-07-01T09:24:32;100516.31;;;16.85;100.00
41862;BME280;27537;57.134;-2.136;2022-07-01T09:29:37;100576.38;;;17.49;100.00
41862;BME280;27537;57.134;-2.136;2022-07-01T09:32:07;100577.00;;;17.39;100.00
41862;BME280;27537;57.134;-2.136;2022-07-01T09:34:36;100561.00;;;17.67;100.00
41862;BME280;27537;57.134;-2.136;2022-07-01T09:37:07;100536.19;;;17.80;100.00
41862;BME280;27537;57.134;-2.136;2022-07-01T09:39:50;100570.38;;;18.22;100.00
41862;BME280;27537;57.134;-2.136;2022-07-01T09:42:21;100578.81;;;17.90;100.00
41862;BME280;27537;57.134;-2.136;2022-07-01T09:44:59;100518.47;;;18.07;100.00
41862;BME280;27537;57.134;-2.136;2022-07-01T09:47:31;100532.03;;;18.02;100.00
41862;BME280;27537;57.134;-2.136;2022-07-01T09:49:59;100557.94;;;18.47;100.00
41862;BME280;27537;57.134;-2.136;2022-07-01T09:52:26;100535.00;;;18.58;100.00
41862;BME280;27537;57.134;-2.136;2022-07-01T09:55:03;100552.81;;;18.81;100.00
41862;BME280;27537;57.134;-2.136;2022-07-01T09:57:30;100525.38;;;18.57;100.00
41862;BME280;27537;57.134;-2.136;2022-07-01T09:59:57;100490.31;;;18.65;100.00
41862;BME280;27537;57.134;-2.136;2022-07-01T10:02:27;100490.44;;;18.39;100.00
41862;BME280;27537;57.134;-2.136;2022-07-01T10:05:08;100511.31;;;18.79;100.00
41862;BME280;27537;57.134;-2.136;2022-07-01T10:13:40;100523.56;;;18.93;100.00
41862;BME280;27537;57.134;-2.136;2022-07-01T10:16:08;100502.03;;;18.74;100.00
41862;BME280;27537;57.134;-2.136;2022-07-01T10:18:36;100512.16;;;19.15;100.00
41862;BME280;27537;57.134;-2.136;2022-07-01T10:21:03;100522.81;;;19.61;100.00
41862;BME280;27537;57.134;-2.136;2022-07-01T10:23:41;100521.03;;;18.92;100.00
41862;BME280;27537;57.134;-2.136;2022-07-01T10:26:09;100521.13;;;19.48;100.00
41862;BME280;27537;57.134;-2.136;2022-07-01T10:28:44;100547.03;;;19.33;100.00
41862;BME280;27537;57.134;-2.136;2022-07-01T10:31:17;100540.31;;;19.41;100.00
41862;BME280;27537;57.134;-2.136;2022-07-01T10:44:22;100545.50;;;19.99;100.00
41862;BME280;27537;57.134;-2.136;2022-07-01T10:46:56;100492.41;;;19.76;100.00
41862;BME280;27537;57.134;-2.136;2022-07-01T10:52:06;100514.50;;;20.32;100.00
41862;BME280;27537;57.134;-2.136;2022-07-01T10:59:53;100497.69;;;19.53;100.00
41862;BME280;27537;57.134;-2.136;2022-07-01T11:02:26;100534.75;;;20.00;100.00
41862;BME280;27537;57.134;-2.136;2022-07-01T11:07:32;100502.66;;;19.92;100.00
41862;BME280;27537;57.134;-2.136;2022-07-01T11:10:02;100492.84;;;20.57;100.00
41862;BME280;27537;57.134;-2.136;2022-07-01T11:12:29;100523.66;;;20.92;100.00
41862;BME280;27537;57.134;-2.136;2022-07-01T11:14:58;100493.94;;;21.08;99.05
41862;BME280;27537;57.134;-2.136;2022-07-01T11:17:26;100540.47;;;20.93;99.91
41862;BME280;27537;57.134;-2.136;2022-07-01T11:19:54;100533.34;;;20.93;95.96
41862;BME280;27537;57.134;-2.136;2022-07-01T11:22:26;100528.75;;;20.95;94.04
41862;BME280;27537;57.134;-2.136;2022-07-01T11:24:58;100513.47;;;21.18;97.82
41862;BME280;27537;57.134;-2.136;2022-07-01T11:27:26;100520.09;;;21.24;100.00
41862;BME280;27537;57.134;-2.136;2022-07-01T11:29:54;100496.50;;;21.19;88.46
41862;BME280;27537;57.134;-2.136;2022-07-01T11:32:25;100546.91;;;21.32;94.64
41862;BME280;27537;57.134;-2.136;2022-07-01T11:34:53;100515.50;;;20.52;95.10
41862;BME280;27537;57.134;-2.136;2022-07-01T11:37:20;100499.00;;;20.69;93.59
41862;BME280;27537;57.134;-2.136;2022-07-01T11:40:10;100516.31;;;20.52;100.00
41862;BME280;27537;57.134;-2.136;2022-07-01T11:42:38;100538.97;;;20.46;100.00
41862;BME280;27537;57.134;-2.136;2022-07-01T11:45:24;100500.25;;;20.86;98.82
41862;BME280;27537;57.134;-2.136;2022-07-01T11:47:52;100523.03;;;20.79;94.43
41862;BME280;27537;57.134;-2.136;2022-07-01T11:50:20;100518.31;;;21.03;95.23
41862;BME280;27537;57.134;-2.136;2022-07-01T11:52:47;100519.41;;;21.53;87.66
41862;BME280;27537;57.134;-2.136;2022-07-01T11:55:18;100530.91;;;21.94;86.86
41862;BME280;27537;57.134;-2.136;2022-07-01T11:58:03;100483.69;;;21.65;88.27
41862;BME280;27537;57.134;-2.136;2022-07-01T12:00:33;100524.84;;;21.92;84.67
41862;BME280;27537;57.134;-2.136;2022-07-01T12:03:00;100489.72;;;21.57;85.80
41862;BME280;27537;57.134;-2.136;2022-07-01T12:05:27;100477.63;;;22.23;85.35
41862;BME280;27537;57.134;-2.136;2022-07-01T12:07:55;100505.56;;;22.19;83.43
41862;BME280;27537;57.134;-2.136;2022-07-01T12:10:26;100479.31;;;22.05;85.81
41862;BME280;27537;57.134;-2.136;2022-07-01T12:12:53;100469.81;;;22.41;83.85
41862;BME280;27537;57.134;-2.136;2022-07-01T12:15:21;100524.00;;;22.61;79.78
41862;BME280;27537;57.134;-2.136;2022-07-01T12:17:47;100485.63;;;22.23;79.72
41862;BME280;27537;57.134;-2.136;2022-07-01T12:20:14;100472.88;;;21.57;87.90
41862;BME280;27537;57.134;-2.136;2022-07-01T12:22:41;100519.34;;;21.43;87.42
41862;BME280;27537;57.134;-2.136;2022-07-01T12:25:13;100503.31;;;21.33;86.67
41862;BME280;27537;57.134;-2.136;2022-07-01T12:27:42;100478.91;;;20.44;91.47
41862;BME280;27537;57.134;-2.136;2022-07-01T12:30:23;100454.41;;;20.40;95.65
41862;BME280;27537;57.134;-2.136;2022-07-01T12:32:50;100511.72;;;20.33;100.00
41862;BME280;27537;57.134;-2.136;2022-07-01T12:35:23;100484.72;;;20.38;100.00
41862;BME280;27537;57.134;-2.136;2022-07-01T12:38:04;100485.31;;;20.09;100.00
41862;BME280;27537;57.134;-2.136;2022-07-01T12:40:34;100487.03;;;19.99;100.00
41862;BME280;27537;57.134;-2.136;2022-07-01T12:43:01;100490.16;;;20.04;100.00
41862;BME280;27537;57.134;-2.136;2022-07-01T12:45:39;100481.47;;;20.02;100.00
41862;BME280;27537;57.134;-2.136;2022-07-01T12:48:06;100487.44;;;19.60;100.00
41862;BME280;27537;57.134;-2.136;2022-07-01T12:50:33;100482.94;;;18.93;100.00
41862;BME280;27537;57.134;-2.136;2022-07-01T12:55:59;100503.69;;;18.99;100.00
41862;BME280;27537;57.134;-2.136;2022-07-01T12:58:26;100458.31;;;19.81;100.00
41862;BME280;27537;57.134;-2.136;2022-07-01T13:00:57;100515.56;;;20.29;100.00
41862;BME280;27537;57.134;-2.136;2022-07-01T13:03:27;100508.69;;;19.60;100.00
41862;BME280;27537;57.134;-2.136;2022-07-01T13:05:56;100510.72;;;19.79;100.00
41862;BME280;27537;57.134;-2.136;2022-07-01T13:08:23;100497.16;;;20.05;100.00
41862;BME280;27537;57.134;-2.136;2022-07-01T13:10:50;100500.69;;;20.38;100.00
41862;BME280;27537;57.134;-2.136;2022-07-01T13:13:17;100471.03;;;19.32;100.00